SBGR/GRU METAR and TAF weather

Enter ICAO airport designator
Station Type Date Time Source
SBGR METAR 2020/07/12 02:00 UTC NOAA

SBGR 120200Z 05006KT CAVOK 18/13 Q1019


Station Type Date Time Source
SBGR Decoded METAR 2020/07/12 02:00 UTC NOAA

Guarulhos Civ / Mil , Brazil (SBGR) 23-26S 046-28W
Jul 11, 2020 - 10:00 PM EDT / 2020.07.12 0200 UTC
Wind: from the NE (050 degrees) at 7 MPH (6 KT):0
Visibility: greater than 7 mile(s):0
Temperature: 64 F (18 C)
Dew Point: 55 F (13 C)
Relative Humidity: 72%
Pressure (altimeter): 30.09 in. Hg (1019 hPa)
ob: SBGR 120200Z 05006KT CAVOK 18/13 Q1019
cycle: 2

Station Type Date Time Source
SBGR TAF 2020/07/12 00:00 UTC NOAA

TAF SBGR 112203Z 1200/1306 04002KT CAVOK TN14/1209Z TX27/1218Z
BECMG 1202/1204 02005KT
BECMG 1206/1208 06003KT 6000 SCT007 PROB30 1209/1211 3500 BR BKN005
BECMG 1211/1213 35010KT CAVOK
TEMPO 1216/1219 34012G22KT
RMK PHM

Example: see airport list